createdAt,value
2022-11-15T00:01:19.022Z,2.42
2022-11-15T00:03:47.973Z,3.35
2022-11-15T00:06:16.059Z,3.53
2022-11-15T00:08:44.115Z,3.05
2022-11-15T00:11:14.132Z,5.95
2022-11-15T00:13:42.662Z,3.53
2022-11-15T00:16:12.589Z,4.03
2022-11-15T00:18:44.078Z,3.30
2022-11-15T00:21:16.078Z,3.53
2022-11-15T00:23:44.161Z,4.68
2022-11-15T00:26:14.493Z,4.18
2022-11-15T00:28:43.119Z,3.50
2022-11-15T00:31:15.529Z,4.70
2022-11-15T00:33:45.761Z,5.03
2022-11-15T00:36:14.426Z,4.35
2022-11-15T00:38:42.801Z,2.95
2022-11-15T00:41:11.235Z,4.65
2022-11-15T00:43:40.978Z,4.20
2022-11-15T00:46:10.746Z,4.47
2022-11-15T00:48:40.504Z,3.42
2022-11-15T00:51:08.657Z,5.68
2022-11-15T00:53:36.833Z,5.63
2022-11-15T00:56:05.119Z,4.03
2022-11-15T00:58:33.342Z,6.07
2022-11-15T01:01:08.434Z,7.40
2022-11-15T01:03:37.320Z,5.55
2022-11-15T01:06:07.343Z,5.93
2022-11-15T01:08:35.640Z,6.00
2022-11-15T01:11:04.717Z,4.10
2022-11-15T01:13:34.380Z,6.82
2022-11-15T01:16:08.920Z,6.68
2022-11-15T01:18:37.106Z,4.90
2022-11-15T01:21:11.626Z,3.10
2022-11-15T01:23:39.909Z,8.50
2022-11-15T01:26:11.596Z,4.88
2022-11-15T01:28:41.730Z,4.32
2022-11-15T01:31:14.183Z,5.47
2022-11-15T01:33:42.602Z,5.88
2022-11-15T01:36:14.571Z,4.63
2022-11-15T01:38:42.815Z,4.13
2022-11-15T01:41:17.602Z,5.78
2022-11-15T01:43:45.762Z,4.55
2022-11-15T01:46:26.095Z,5.78
2022-11-15T01:48:56.355Z,7.55
2022-11-15T01:51:30.562Z,5.22
2022-11-15T01:54:02.008Z,6.97
2022-11-15T01:56:35.048Z,4.70
2022-11-15T01:59:06.422Z,8.38
2022-11-15T02:01:35.594Z,6.10
2022-11-15T02:04:08.023Z,10.23
2022-11-15T02:06:38.386Z,5.57
2022-11-15T02:09:06.824Z,7.75
2022-11-15T02:11:35.222Z,6.30
2022-11-15T02:14:04.852Z,8.57
2022-11-15T02:16:37.699Z,5.03
2022-11-15T02:19:23.770Z,5.85
2022-11-15T02:22:03.563Z,5.68
2022-11-15T02:25:05.464Z,7.47
2022-11-15T02:28:12.639Z,6.60
2022-11-15T02:30:46.403Z,6.25
2022-11-15T02:33:25.509Z,6.88
2022-11-15T02:36:01.297Z,7.80
2022-11-15T02:38:36.328Z,5.70
2022-11-15T02:41:07.340Z,4.72
2022-11-15T02:43:59.480Z,6.78
2022-11-15T02:46:54.665Z,7.47
2022-11-15T02:49:23.624Z,6.85
2022-11-15T02:51:54.013Z,6.35
2022-11-15T02:54:24.861Z,5.65
2022-11-15T02:56:56.804Z,7.03
2022-11-15T02:59:50.725Z,6.45
2022-11-15T03:02:33.735Z,5.55
2022-11-15T03:05:09.360Z,7.82
2022-11-15T03:07:43.966Z,6.18
2022-11-15T03:10:19.117Z,7.10
2022-11-15T03:12:55.161Z,4.03
2022-11-15T03:15:25.989Z,5.82
2022-11-15T03:18:00.006Z,5.72
2022-11-15T03:20:30.327Z,8.98
2022-11-15T03:23:03.710Z,7.03
2022-11-15T03:25:34.281Z,7.07
2022-11-15T03:28:05.416Z,5.45
2022-11-15T03:30:37.424Z,8.35
2022-11-15T03:33:07.888Z,7.07
2022-11-15T03:35:41.011Z,4.35
2022-11-15T03:38:16.184Z,7.10
2022-11-15T03:40:47.492Z,6.32
2022-11-15T03:43:24.281Z,6.57
2022-11-15T03:45:57.864Z,7.05
2022-11-15T03:48:31.322Z,6.32
2022-11-15T03:50:59.550Z,10.05
2022-11-15T03:53:27.843Z,4.72
2022-11-15T03:55:55.966Z,6.50
2022-11-15T03:58:24.043Z,5.95
2022-11-15T04:00:52.195Z,6.82
2022-11-15T04:03:20.425Z,6.28
2022-11-15T04:05:49.882Z,6.50
2022-11-15T04:08:17.920Z,5.25
2022-11-15T04:10:46.031Z,7.72
2022-11-15T04:13:14.091Z,8.88
2022-11-15T04:15:42.171Z,4.57
2022-11-15T04:18:10.263Z,7.28
2022-11-15T04:21:10.284Z,5.85
2022-11-15T04:24:02.285Z,4.30
2022-11-15T04:26:30.512Z,6.45
2022-11-15T04:29:16.077Z,5.93
2022-11-15T04:31:44.153Z,3.92
2022-11-15T04:34:12.176Z,4.75
2022-11-15T04:36:57.629Z,6.78
2022-11-15T04:39:27.088Z,4.80
2022-11-15T04:41:55.261Z,4.90
2022-11-15T04:44:23.524Z,6.10
2022-11-15T04:46:51.591Z,7.28
2022-11-15T04:49:19.684Z,5.57
2022-11-15T04:51:48.029Z,5.10
2022-11-15T04:54:16.101Z,5.38
2022-11-15T04:56:45.571Z,4.93
2022-11-15T04:59:13.697Z,5.03
2022-11-15T05:01:44.915Z,5.30
2022-11-15T05:04:21.204Z,6.70
2022-11-15T05:06:53.287Z,7.88
2022-11-15T05:09:22.106Z,5.60
2022-11-15T05:11:51.683Z,6.43
2022-11-15T05:14:19.759Z,4.45
2022-11-15T05:16:47.819Z,4.75
2022-11-15T05:19:16.031Z,6.30
2022-11-15T05:21:44.119Z,5.72
2022-11-15T05:24:12.790Z,7.00
2022-11-15T05:26:40.916Z,4.47
2022-11-15T05:29:12.549Z,5.47
2022-11-15T05:31:43.304Z,6.25
2022-11-15T05:34:11.674Z,4.03
2022-11-15T05:36:40.661Z,5.68
2022-11-15T05:39:10.107Z,4.40
2022-11-15T05:41:41.494Z,8.45
2022-11-15T05:44:14.936Z,4.63
2022-11-15T05:46:44.222Z,3.22
2022-11-15T05:49:15.340Z,3.10
2022-11-15T05:51:46.624Z,3.95
2022-11-15T05:54:15.304Z,4.82
2022-11-15T05:56:43.739Z,5.00
2022-11-15T05:59:13.420Z,2.95
2022-11-15T06:01:41.897Z,3.92
2022-11-15T06:04:10.119Z,4.82
2022-11-15T06:06:38.251Z,3.80
2022-11-15T06:09:06.317Z,4.68
2022-11-15T06:11:34.419Z,5.25
2022-11-15T06:14:02.527Z,7.68
2022-11-15T06:16:31.993Z,3.45
2022-11-15T06:19:00.150Z,3.97
2022-11-15T06:21:30.223Z,4.97
2022-11-15T06:23:58.287Z,6.40
2022-11-15T06:26:26.552Z,4.40
2022-11-15T06:28:54.729Z,5.35
2022-11-15T06:31:22.946Z,4.10
2022-11-15T06:33:52.401Z,3.88
2022-11-15T06:36:20.470Z,7.00
2022-11-15T06:38:48.827Z,4.15
2022-11-15T06:41:17.980Z,4.30
2022-11-15T06:43:49.392Z,4.78
2022-11-15T06:46:17.451Z,3.75
2022-11-15T06:48:45.509Z,4.38
2022-11-15T06:51:14.889Z,3.13
2022-11-15T06:53:42.880Z,4.65
2022-11-15T06:56:11.153Z,4.60
2022-11-15T06:58:39.427Z,3.65
2022-11-15T07:01:10.235Z,11.07
2022-11-15T07:03:39.383Z,8.68
2022-11-15T07:06:08.326Z,12.10
2022-11-15T07:08:37.871Z,21.98
2022-11-15T07:11:07.661Z,5.45
2022-11-15T07:13:37.142Z,3.50
2022-11-15T07:16:06.406Z,3.70
2022-11-15T07:18:36.215Z,4.60
2022-11-15T07:21:05.890Z,3.50
2022-11-15T07:23:34.268Z,2.83
2022-11-15T07:26:04.164Z,5.18
2022-11-15T07:28:32.541Z,4.50
2022-11-15T07:31:03.718Z,6.93
2022-11-15T07:33:32.116Z,3.08
2022-11-15T07:36:02.602Z,2.97
2022-11-15T07:38:30.813Z,3.45
2022-11-15T07:41:00.031Z,3.03
2022-11-15T07:43:30.905Z,3.72
2022-11-15T07:45:59.965Z,3.50
2022-11-15T07:48:42.172Z,3.67
2022-11-15T07:51:14.681Z,2.08
2022-11-15T07:53:43.366Z,4.30
2022-11-15T07:56:12.047Z,6.60
2022-11-15T07:58:41.559Z,2.78
2022-11-15T08:01:12.446Z,2.47
2022-11-15T08:03:40.963Z,2.38
2022-11-15T08:06:09.176Z,2.95
2022-11-15T08:08:37.518Z,2.50
2022-11-15T08:11:06.104Z,2.08
2022-11-15T08:13:34.852Z,2.08
2022-11-15T08:16:06.487Z,2.08
2022-11-15T08:18:34.790Z,1.70
2022-11-15T08:21:03.600Z,1.75
2022-11-15T08:23:32.099Z,1.50
2022-11-15T08:26:04.610Z,1.48
2022-11-15T08:28:33.622Z,3.20
2022-11-15T08:31:01.824Z,2.17
2022-11-15T08:33:32.027Z,1.67
2022-11-15T08:36:00.930Z,2.65
2022-11-15T08:38:30.942Z,3.15
2022-11-15T08:41:04.071Z,2.95
2022-11-15T08:43:32.340Z,4.88
2022-11-15T08:46:01.280Z,4.38
2022-11-15T08:48:31.810Z,2.53
2022-11-15T08:51:00.324Z,2.97
2022-11-15T08:53:28.432Z,3.35
2022-11-15T08:55:56.614Z,1.77
2022-11-15T08:58:24.695Z,4.22
2022-11-15T09:00:52.820Z,3.63
2022-11-15T09:03:20.997Z,3.17
2022-11-15T09:05:51.009Z,2.95
2022-11-15T09:08:46.119Z,2.85
2022-11-15T09:11:08.395Z,1.90
2022-11-15T09:13:37.946Z,2.13
2022-11-15T09:16:06.806Z,2.33
2022-11-15T09:18:35.280Z,1.80
2022-11-15T09:21:05.386Z,3.25
2022-11-15T09:23:33.542Z,2.03
2022-11-15T09:26:03.624Z,3.13
2022-11-15T09:28:32.656Z,2.50
2022-11-15T09:31:02.472Z,4.70
2022-11-15T09:33:31.016Z,3.08
2022-11-15T09:36:03.214Z,1.88
2022-11-15T09:38:33.177Z,1.83
2022-11-15T09:41:40.717Z,1.80
2022-11-15T09:44:25.759Z,2.15
2022-11-15T09:47:00.787Z,1.80
2022-11-15T09:49:31.099Z,1.50
2022-11-15T09:52:00.045Z,1.13
2022-11-15T09:57:26.285Z,2.05
2022-11-15T10:00:30.672Z,1.77
2022-11-15T10:03:06.599Z,1.00
2022-11-15T10:05:40.294Z,0.95
2022-11-15T10:08:30.459Z,1.95
2022-11-15T10:13:52.166Z,1.10
2022-11-15T10:16:41.649Z,1.23
2022-11-15T10:19:16.703Z,1.02
2022-11-15T10:21:56.627Z,0.73
2022-11-15T10:24:30.200Z,1.48
2022-11-15T10:26:59.639Z,1.67
2022-11-15T10:29:28.302Z,0.70
2022-11-15T10:31:56.481Z,2.10
2022-11-15T10:34:26.080Z,3.92
2022-11-15T10:36:58.376Z,5.50
2022-11-15T10:39:28.149Z,2.05
2022-11-15T10:41:56.749Z,0.98
2022-11-15T10:44:30.753Z,1.20
2022-11-15T10:47:37.686Z,1.00
2022-11-15T10:50:27.235Z,0.82
2022-11-15T10:52:56.016Z,0.50
2022-11-15T10:55:29.813Z,1.00
2022-11-15T10:58:03.530Z,1.10
2022-11-15T11:00:39.608Z,0.82
2022-11-15T11:03:28.960Z,0.68
2022-11-15T11:06:07.471Z,3.25
2022-11-15T11:08:35.575Z,1.63
2022-11-15T11:11:05.836Z,0.55
2022-11-15T11:13:36.149Z,0.70
2022-11-15T11:16:43.775Z,1.08
2022-11-15T11:19:38.870Z,0.85
2022-11-15T11:22:16.593Z,0.65
2022-11-15T11:24:50.011Z,0.70
2022-11-15T11:27:37.144Z,0.90
2022-11-15T11:30:11.195Z,0.80
2022-11-15T11:33:17.414Z,0.80
2022-11-15T11:35:57.398Z,2.50
2022-11-15T11:38:50.365Z,1.33
2022-11-15T11:41:33.373Z,0.47
2022-11-15T11:44:16.453Z,0.77
2022-11-15T11:46:58.181Z,0.52
2022-11-15T11:49:35.238Z,0.70
2022-11-15T11:52:07.632Z,1.10
2022-11-15T11:54:44.799Z,1.17
2022-11-15T11:57:18.685Z,0.95
2022-11-15T11:59:52.526Z,0.95
2022-11-15T12:02:31.443Z,1.15
2022-11-15T12:05:09.904Z,1.17
2022-11-15T12:07:41.097Z,1.55
2022-11-15T12:10:21.137Z,1.02
2022-11-15T12:12:57.711Z,0.98
2022-11-15T12:15:29.494Z,1.20
2022-11-15T12:17:58.845Z,1.23
2022-11-15T12:20:35.036Z,0.88
2022-11-15T12:23:08.051Z,1.35
2022-11-15T12:25:43.486Z,1.77
2022-11-15T12:28:26.485Z,1.90
2022-11-15T12:31:02.244Z,2.05
2022-11-15T12:33:37.213Z,2.90
2022-11-15T12:36:11.116Z,1.30
2022-11-15T12:38:59.360Z,1.75
2022-11-15T12:41:29.220Z,1.33
2022-11-15T12:43:58.510Z,2.40
2022-11-15T12:47:02.588Z,1.50
2022-11-15T12:49:47.993Z,1.30
2022-11-15T12:52:19.997Z,1.90
2022-11-15T12:54:54.534Z,1.20
2022-11-15T12:57:41.128Z,1.45
2022-11-15T13:00:48.445Z,1.55
2022-11-15T13:03:28.160Z,1.88
2022-11-15T13:06:11.919Z,2.10
2022-11-15T13:08:50.648Z,1.48
2022-11-15T13:11:44.053Z,1.30
2022-11-15T13:14:46.528Z,1.55
2022-11-15T13:17:41.127Z,1.92
2022-11-15T13:20:28.327Z,1.15
2022-11-15T13:23:04.058Z,2.58
2022-11-15T13:25:59.588Z,1.10
2022-11-15T13:28:34.056Z,1.48
2022-11-15T13:31:05.538Z,1.33
2022-11-15T13:33:36.849Z,1.10
2022-11-15T13:36:08.629Z,2.03
2022-11-15T13:38:38.982Z,4.53
2022-11-15T13:41:21.651Z,1.58
2022-11-15T13:43:51.324Z,2.03
2022-11-15T13:46:21.018Z,1.23
2022-11-15T13:48:53.357Z,0.60
2022-11-15T13:51:26.579Z,2.22
2022-11-15T13:54:00.135Z,1.45
2022-11-15T13:56:31.070Z,1.98
2022-11-15T13:58:59.299Z,1.33
2022-11-15T14:01:34.025Z,1.38
2022-11-15T14:04:03.675Z,1.15
2022-11-15T14:06:33.087Z,2.70
2022-11-15T14:09:33.763Z,0.85
2022-11-15T14:12:04.819Z,4.22
2022-11-15T14:14:32.950Z,1.27
2022-11-15T14:17:02.454Z,1.30
2022-11-15T14:19:39.422Z,1.30
2022-11-15T14:22:22.742Z,0.73
2022-11-15T14:25:15.239Z,0.60
2022-11-15T14:27:46.236Z,1.48
2022-11-15T14:30:18.709Z,2.83
2022-11-15T14:32:49.301Z,0.80
2022-11-15T14:35:20.697Z,0.90
2022-11-15T14:37:49.252Z,0.65
2022-11-15T14:40:19.524Z,0.75
2022-11-15T14:42:51.240Z,1.70
2022-11-15T14:45:23.123Z,0.75
2022-11-15T14:47:51.249Z,1.73
2022-11-15T14:50:21.330Z,0.70
2022-11-15T14:52:50.193Z,0.80
2022-11-15T14:55:22.634Z,2.05
2022-11-15T14:57:53.405Z,1.10
2022-11-15T15:00:22.488Z,1.08
2022-11-15T15:02:55.991Z,1.27
2022-11-15T15:05:28.565Z,0.75
2022-11-15T15:07:56.756Z,1.52
2022-11-15T15:10:40.128Z,0.60
2022-11-15T15:13:18.963Z,1.13
2022-11-15T15:15:47.442Z,1.27
2022-11-15T15:18:16.513Z,2.28
2022-11-15T15:20:46.658Z,1.67
2022-11-15T15:23:19.360Z,1.13
2022-11-15T15:25:49.787Z,1.30
2022-11-15T15:28:19.364Z,0.60
2022-11-15T15:30:47.723Z,1.15
2022-11-15T15:33:15.958Z,1.13
2022-11-15T15:35:44.660Z,0.80
2022-11-15T15:38:16.954Z,1.98
2022-11-15T15:40:45.279Z,1.08
2022-11-15T15:43:13.533Z,6.25
2022-11-15T15:45:45.876Z,1.38
2022-11-15T15:48:15.785Z,0.80
2022-11-15T15:50:45.037Z,1.33
2022-11-15T15:53:14.339Z,1.38
2022-11-15T15:55:42.569Z,0.80
2022-11-15T15:58:10.708Z,1.95
2022-11-15T16:00:39.890Z,0.57
2022-11-15T16:03:12.289Z,5.32
2022-11-15T16:05:41.225Z,1.25
2022-11-15T16:08:21.956Z,1.33
2022-11-15T16:10:50.779Z,1.08
2022-11-15T16:13:19.480Z,1.00
2022-11-15T16:15:52.796Z,1.13
2022-11-15T16:18:22.448Z,1.17
2022-11-15T16:20:53.183Z,1.02
2022-11-15T16:23:24.674Z,0.70
2022-11-15T16:25:56.757Z,0.73
2022-11-15T16:28:28.389Z,1.15
2022-11-15T16:31:03.224Z,1.27
2022-11-15T16:33:33.677Z,3.33
2022-11-15T16:36:02.324Z,0.70
2022-11-15T16:38:31.689Z,1.08
2022-11-15T16:41:00.542Z,1.42
2022-11-15T16:43:28.724Z,1.20
2022-11-15T16:45:57.410Z,1.20
2022-11-15T16:48:27.875Z,1.45
2022-11-15T16:50:59.868Z,0.95
2022-11-15T16:53:29.047Z,0.88
2022-11-15T16:55:58.099Z,1.30
2022-11-15T16:58:26.472Z,1.00
2022-11-15T17:00:55.483Z,0.93
2022-11-15T17:03:24.388Z,1.50
2022-11-15T17:05:53.088Z,2.20
2022-11-15T17:08:24.223Z,1.30
2022-11-15T17:10:52.614Z,1.55
2022-11-15T17:13:20.830Z,1.70
2022-11-15T17:15:49.006Z,1.95
2022-11-15T17:18:17.300Z,1.77
2022-11-15T17:20:45.609Z,0.90
2022-11-15T17:23:15.514Z,1.30
2022-11-15T17:25:45.065Z,0.75
2022-11-15T17:28:15.374Z,2.65
2022-11-15T17:30:44.309Z,1.30
2022-11-15T17:33:12.567Z,1.33
2022-11-15T17:35:40.710Z,3.03
2022-11-15T17:38:10.842Z,1.50
2022-11-15T17:40:38.929Z,1.85
2022-11-15T17:43:09.023Z,1.10
2022-11-15T17:45:41.710Z,0.82
2022-11-15T17:48:19.232Z,2.08
2022-11-15T17:50:56.724Z,4.90
2022-11-15T17:53:25.246Z,2.58
2022-11-15T17:55:53.856Z,0.90
2022-11-15T17:58:23.267Z,3.05
2022-11-15T18:00:51.459Z,1.52
2022-11-15T18:03:19.806Z,1.27
2022-11-15T18:05:47.989Z,1.10
2022-11-15T18:08:17.798Z,0.90
2022-11-15T18:10:45.947Z,1.25
2022-11-15T18:13:14.012Z,0.88
2022-11-15T18:15:43.629Z,0.82
2022-11-15T18:18:11.765Z,0.60
2022-11-15T18:20:39.913Z,1.38
2022-11-15T18:23:08.032Z,5.47
2022-11-15T18:25:36.186Z,2.00
2022-11-15T18:28:06.444Z,1.50
2022-11-15T18:30:34.676Z,0.93
2022-11-15T18:33:04.142Z,1.95
2022-11-15T18:35:32.369Z,1.10
2022-11-15T18:38:00.546Z,1.75
2022-11-15T18:40:28.944Z,1.30
2022-11-15T18:42:57.113Z,0.70
2022-11-15T18:45:25.274Z,0.85
2022-11-15T18:47:53.833Z,1.38
2022-11-15T18:50:23.401Z,1.80
2022-11-15T18:52:51.474Z,0.70
2022-11-15T18:55:19.612Z,0.75
2022-11-15T18:57:47.797Z,8.25
2022-11-15T19:00:17.440Z,1.30
2022-11-15T19:02:45.634Z,4.45
2022-11-15T19:05:17.018Z,1.65
2022-11-15T19:07:49.611Z,1.95
2022-11-15T19:10:18.161Z,1.42
2022-11-15T19:12:47.236Z,1.92
2022-11-15T19:15:15.641Z,1.20
2022-11-15T19:17:44.042Z,1.00
2022-11-15T19:20:12.883Z,1.60
2022-11-15T19:22:41.905Z,1.25
2022-11-15T19:25:11.531Z,1.30
2022-11-15T19:27:40.593Z,1.95
2022-11-15T19:30:10.319Z,0.82
2022-11-15T19:32:38.475Z,2.70
2022-11-15T19:35:07.111Z,1.33
2022-11-15T19:37:36.480Z,1.50
2022-11-15T19:40:05.309Z,0.85
2022-11-15T19:42:35.009Z,1.13
2022-11-15T19:45:03.224Z,1.42
2022-11-15T19:47:31.493Z,1.50
2022-11-15T19:49:59.624Z,1.20
2022-11-15T19:52:27.830Z,0.98
2022-11-15T19:54:56.109Z,1.65
2022-11-15T19:57:24.480Z,1.80
2022-11-15T19:59:54.468Z,2.13
2022-11-15T20:02:22.814Z,0.95
2022-11-15T20:04:50.895Z,1.40
2022-11-15T20:07:19.324Z,1.58
2022-11-15T20:09:47.574Z,0.82
2022-11-15T20:12:15.934Z,1.35
2022-11-15T20:14:46.785Z,1.50
2022-11-15T20:17:16.555Z,1.63
2022-11-15T20:19:44.876Z,1.77
2022-11-15T20:22:13.246Z,6.75
2022-11-15T20:24:41.544Z,1.98
2022-11-15T20:27:10.317Z,1.15
2022-11-15T20:29:43.658Z,4.43
2022-11-15T20:32:13.054Z,1.45
2022-11-15T20:34:42.733Z,2.05
2022-11-15T20:37:10.929Z,1.55
2022-11-15T20:39:39.447Z,1.25
2022-11-15T20:42:08.643Z,0.93
2022-11-15T20:44:37.696Z,1.30
2022-11-15T20:47:06.800Z,1.20
2022-11-15T20:49:35.041Z,10.48
2022-11-15T20:52:04.679Z,1.25
2022-11-15T20:54:35.976Z,1.75
2022-11-15T20:57:04.337Z,2.00
2022-11-15T20:59:32.483Z,1.45
2022-11-15T21:02:03.616Z,1.65
2022-11-15T21:04:31.916Z,1.45
2022-11-15T21:07:00.348Z,2.35
2022-11-15T21:10:02.022Z,2.50
2022-11-15T21:12:30.487Z,1.10
2022-11-15T21:14:58.700Z,0.90
2022-11-15T21:17:27.772Z,1.23
2022-11-15T21:19:56.091Z,1.20
2022-11-15T21:22:24.186Z,1.20
2022-11-15T21:24:53.653Z,1.67
2022-11-15T21:27:21.790Z,1.83
2022-11-15T21:29:49.922Z,2.10
2022-11-15T21:32:18.357Z,1.65
2022-11-15T21:34:47.020Z,1.50
2022-11-15T21:37:15.250Z,1.30
2022-11-15T21:39:43.390Z,1.00
2022-11-15T21:42:13.266Z,2.15
2022-11-15T21:44:41.463Z,1.85
2022-11-15T21:47:09.533Z,1.08
2022-11-15T21:49:37.660Z,1.33
2022-11-15T21:52:06.170Z,1.08
2022-11-15T21:54:34.288Z,1.38
2022-11-15T21:57:02.441Z,1.42
2022-11-15T21:59:32.010Z,2.47
2022-11-15T22:02:17.287Z,1.88
2022-11-15T22:04:45.522Z,2.67
2022-11-15T22:07:13.697Z,1.30
2022-11-15T22:09:41.910Z,1.60
2022-11-15T22:12:10.037Z,1.52
2022-11-15T22:14:39.671Z,1.05
2022-11-15T22:17:11.060Z,1.20
2022-11-15T22:19:51.955Z,2.03
2022-11-15T22:22:20.977Z,3.80
2022-11-15T22:24:49.237Z,3.38
2022-11-15T22:27:17.736Z,1.30
2022-11-15T22:29:47.374Z,3.55
2022-11-15T22:32:15.642Z,2.15
2022-11-15T22:34:43.916Z,2.40
2022-11-15T22:37:20.992Z,2.15
2022-11-15T22:39:49.630Z,1.73
2022-11-15T22:42:23.217Z,2.50
2022-11-15T22:44:53.554Z,2.25
2022-11-15T22:47:21.791Z,1.50
2022-11-15T22:49:50.012Z,1.67
2022-11-15T22:52:18.290Z,1.48
2022-11-15T22:54:46.505Z,1.20
2022-11-15T22:57:14.738Z,2.17
2022-11-15T22:59:42.931Z,1.60
2022-11-15T23:02:12.565Z,1.83
2022-11-15T23:04:41.020Z,2.40
2022-11-15T23:07:09.470Z,1.65
2022-11-15T23:09:38.088Z,2.05
2022-11-15T23:12:24.342Z,2.28
2022-11-15T23:14:52.628Z,1.30
2022-11-15T23:17:22.345Z,1.52
2022-11-15T23:19:50.486Z,3.00
2022-11-15T23:22:35.245Z,1.67
2022-11-15T23:25:03.598Z,2.20
2022-11-15T23:27:31.774Z,1.65
2022-11-15T23:30:17.379Z,2.85
2022-11-15T23:33:04.519Z,3.30
2022-11-15T23:35:32.966Z,2.05
2022-11-15T23:38:01.188Z,3.05
2022-11-15T23:40:29.430Z,4.20
2022-11-15T23:42:59.295Z,3.67
2022-11-15T23:45:27.495Z,2.10
2022-11-15T23:48:01.521Z,1.92
2022-11-15T23:50:30.133Z,1.48
2022-11-15T23:52:58.409Z,2.28
2022-11-15T23:55:26.571Z,2.58
2022-11-15T23:57:54.761Z,3.15
